Time;durP1;ratioP1;P1;durP2;ratioP2;P2;SDS_P1;SDS_P2;PMS_P1;PMS_P2;Temp;Humidity;BMP_temperature;BMP_pressure;BME280_temperature;BME280_humidity;BME280_pressure;Samples;Min_cycle;Max_cycle;Signal;HPM_P1;HPM_P2
2022/03/21 00:00:21;;;;;;;103.97;45.85;;;;;;;2.56;100.00;102615.25;5037463;28;20472;-78
2022/03/21 00:02:48;;;;;;;91.03;40.80;;;;;;;2.48;100.00;102615.34;5015697;28;20090;-78
2022/03/21 00:05:13;;;;;;;81.10;40.15;;;;;;;2.39;100.00;102620.91;5015503;28;20033;-78
2022/03/21 00:07:39;;;;;;;82.85;40.75;;;;;;;2.30;100.00;102619.25;5036930;28;20029;-78
2022/03/21 00:10:05;;;;;;;89.18;40.08;;;;;;;2.15;100.00;102625.78;5038288;28;20360;-78
2022/03/21 00:12:30;;;;;;;77.68;38.33;;;;;;;2.17;100.00;102626.66;5034960;28;20090;-78
2022/03/21 00:14:56;;;;;;;83.22;39.67;;;;;;;2.17;100.00;102618.56;5020623;28;20124;-78
2022/03/21 00:17:22;;;;;;;69.40;35.40;;;;;;;2.05;100.00;102624.16;5037810;28;20037;-78
2022/03/21 00:19:48;;;;;;;76.00;37.80;;;;;;;2.15;100.00;102633.91;5029856;28;20025;-79
2022/03/21 00:22:13;;;;;;;75.65;37.75;;;;;;;2.05;100.00;102628.66;5040329;28;20029;-77
2022/03/21 00:24:40;;;;;;;81.97;40.25;;;;;;;2.11;100.00;102624.03;5015161;28;20038;-78
2022/03/21 00:27:09;;;;;;;79.47;37.65;;;;;;;2.19;100.00;102629.34;5040286;28;20037;-78
2022/03/21 00:29:34;;;;;;;70.30;36.58;;;;;;;1.97;100.00;102617.97;5032580;28;20041;-77
2022/03/21 00:32:00;;;;;;;73.72;36.92;;;;;;;1.97;100.00;102634.19;5029268;28;20037;-78
2022/03/21 00:34:26;;;;;;;72.57;36.03;;;;;;;1.96;100.00;102618.88;5009814;28;20049;-79
2022/03/21 00:36:51;;;;;;;74.47;38.72;;;;;;;1.99;100.00;102625.13;5032558;28;20366;-78
2022/03/21 00:39:17;;;;;;;77.22;37.00;;;;;;;1.91;100.00;102632.44;5033010;28;20100;-78
2022/03/21 00:41:43;;;;;;;79.35;38.65;;;;;;;1.95;100.00;102636.91;5028207;28;20388;-79
2022/03/21 00:44:09;;;;;;;74.03;37.80;;;;;;;1.84;100.00;102652.38;5039890;28;20049;-77
2022/03/21 00:46:34;;;;;;;81.10;37.85;;;;;;;1.80;100.00;102647.91;5031842;28;20074;-78
2022/03/21 00:49:00;;;;;;;73.55;37.63;;;;;;;1.91;100.00;102648.66;5031218;28;20033;-77
2022/03/21 00:51:25;;;;;;;74.22;39.10;;;;;;;2.02;100.00;102646.69;5015373;28;20080;-77
2022/03/21 00:53:51;;;;;;;78.85;37.20;;;;;;;1.97;100.00;102650.38;5031320;28;20053;-77
2022/03/21 00:56:16;;;;;;;80.97;38.65;;;;;;;1.99;100.00;102648.56;5038296;28;20029;-77
2022/03/21 00:58:42;;;;;;;73.38;38.60;;;;;;;2.18;100.00;102652.78;5038944;28;20068;-77
2022/03/21 01:01:07;;;;;;;80.38;41.05;;;;;;;2.06;100.00;102643.94;5049961;28;20035;-79
2022/03/21 01:03:33;;;;;;;74.55;38.95;;;;;;;2.20;100.00;102641.94;5037986;28;20065;-77
2022/03/21 01:05:58;;;;;;;77.53;38.50;;;;;;;2.22;100.00;102644.63;5013844;28;20111;-78
2022/03/21 01:08:24;;;;;;;72.43;36.17;;;;;;;2.18;100.00;102652.78;5009416;28;20110;-77
2022/03/21 01:10:49;;;;;;;64.53;34.30;;;;;;;1.96;100.00;102641.38;5029355;28;20034;-77
2022/03/21 01:13:18;;;;;;;64.32;35.63;;;;;;;2.01;100.00;102649.41;5038756;28;20038;-77
2022/03/21 01:15:44;;;;;;;70.60;37.13;;;;;;;2.14;100.00;102650.13;5016128;28;20021;-78
2022/03/21 01:18:10;;;;;;;70.47;37.78;;;;;;;2.13;100.00;102656.44;5042735;28;20033;-78
2022/03/21 01:20:35;;;;;;;66.22;35.75;;;;;;;2.12;100.00;102660.06;5039404;28;20134;-78
2022/03/21 01:23:00;;;;;;;73.35;37.88;;;;;;;2.12;100.00;102663.66;5045392;28;20136;-78
2022/03/21 01:25:26;;;;;;;80.13;40.08;;;;;;;2.04;100.00;102664.69;5057308;28;20029;-78
2022/03/21 01:27:51;;;;;;;83.50;41.63;;;;;;;2.05;100.00;102656.56;5042348;28;20029;-78
2022/03/21 01:30:17;;;;;;;89.78;43.65;;;;;;;2.04;100.00;102656.59;5037706;28;20025;-78
2022/03/21 01:32:45;;;;;;;92.28;43.05;;;;;;;1.97;100.00;102667.47;5020944;28;20049;-78
2022/03/21 01:35:16;;;;;;;90.40;41.30;;;;;;;1.91;100.00;102664.84;5037080;28;20430;-78
2022/03/21 01:37:43;;;;;;;72.85;38.13;;;;;;;1.99;100.00;102671.03;5040575;28;20037;-78
2022/03/21 01:40:10;;;;;;;82.13;38.90;;;;;;;1.99;100.00;102659.34;5037040;28;20105;-78
2022/03/21 01:42:43;;;;;;;78.95;39.05;;;;;;;2.01;100.00;102658.41;5023100;28;20045;-78
2022/03/21 01:45:09;;;;;;;76.90;39.03;;;;;;;1.86;100.00;102664.03;5019497;28;20357;-77
2022/03/21 01:47:35;;;;;;;75.65;36.92;;;;;;;1.77;100.00;102659.66;5020242;28;20041;-78
2022/03/21 01:50:05;;;;;;;71.30;34.78;;;;;;;1.77;100.00;102656.94;5028685;28;20041;-77
2022/03/21 01:52:30;;;;;;;76.00;35.20;;;;;;;1.54;100.00;102661.72;5003154;28;20494;-78
2022/03/21 01:57:43;;;;;;;70.65;36.08;;;;;;;1.42;100.00;102671.75;5041703;28;20137;-78
2022/03/21 02:00:09;;;;;;;72.53;36.08;;;;;;;1.30;100.00;102661.13;5037909;28;20052;-78
2022/03/21 02:02:34;;;;;;;73.32;35.67;;;;;;;1.36;100.00;102660.16;5037978;28;20037;-78
2022/03/21 02:05:00;;;;;;;75.25;37.25;;;;;;;1.35;100.00;102664.66;5036814;28;20040;-78
2022/03/21 02:07:25;;;;;;;71.05;35.85;;;;;;;1.50;100.00;102655.47;5032961;28;20021;-78
2022/03/21 02:09:53;;;;;;;77.20;36.88;;;;;;;1.53;100.00;102650.06;5033080;28;20053;-78
2022/03/21 02:12:19;;;;;;;78.88;38.15;;;;;;;1.52;100.00;102653.66;5039479;28;20045;-78
2022/03/21 02:14:45;;;;;;;81.45;38.33;;;;;;;1.54;100.00;102657.25;5016181;28;20041;-78
2022/03/21 02:17:10;;;;;;;78.75;36.90;;;;;;;1.39;100.00;102652.91;5025981;28;20045;-78
2022/03/21 02:19:38;;;;;;;79.05;39.25;;;;;;;1.61;100.00;102672.44;5035090;28;20511;-78
2022/03/21 02:22:30;;;;;;;81.32;36.78;;;;;;;1.61;100.00;102667.03;5016002;28;20120;-77
2022/03/21 02:25:05;;;;;;;70.32;34.25;;;;;;;1.63;100.00;102664.31;5023304;28;20197;-77
2022/03/21 02:27:32;;;;;;;66.78;33.22;;;;;;;1.59;100.00;102674.28;5033930;28;20057;-77
2022/03/21 02:29:59;;;;;;;68.50;34.17;;;;;;;1.59;100.00;102667.97;5035562;28;20026;-77
2022/03/21 02:32:27;;;;;;;68.70;35.20;;;;;;;1.56;100.00;102670.69;5035522;28;20099;-77
2022/03/21 02:34:55;;;;;;;73.80;35.65;;;;;;;1.60;100.00;102677.88;5040179;28;20059;-77
2022/03/21 02:37:20;;;;;;;65.55;33.83;;;;;;;1.55;100.00;102668.94;5039818;28;20369;-77
2022/03/21 02:39:48;;;;;;;67.38;34.28;;;;;;;1.67;100.00;102673.28;5035150;28;20040;-79
2022/03/21 02:42:14;;;;;;;73.25;33.83;;;;;;;1.69;100.00;102668.75;5031823;28;20037;-78
2022/03/21 02:44:39;;;;;;;74.00;34.42;;;;;;;1.76;100.00;102665.97;5036203;28;20104;-77
2022/03/21 02:47:07;;;;;;;63.83;33.53;;;;;;;1.61;100.00;102660.75;5037644;28;20116;-77
2022/03/21 02:49:33;;;;;;;71.82;34.72;;;;;;;1.68;100.00;102659.75;5018606;28;20400;-77
2022/03/21 02:52:00;;;;;;;65.00;32.65;;;;;;;1.68;100.00;102654.38;5012467;28;20041;-77
2022/03/21 02:54:26;;;;;;;68.93;31.92;;;;;;;1.78;100.00;102660.53;5022343;28;20026;-77
2022/03/21 02:56:52;;;;;;;85.90;34.42;;;;;;;1.67;100.00;102662.47;5036387;28;20042;-77
2022/03/21 02:59:19;;;;;;;66.97;30.88;;;;;;;1.65;100.00;102663.38;5036137;28;20438;-77
2022/03/21 03:01:44;;;;;;;64.15;31.45;;;;;;;1.69;100.00;102669.66;5036620;28;20108;-79
2022/03/21 03:04:10;;;;;;;61.90;29.98;;;;;;;1.67;100.00;102655.25;5034909;28;20033;-77
2022/03/21 03:06:39;;;;;;;70.90;32.13;;;;;;;1.62;100.00;102644.56;5034838;28;20472;-78
2022/03/21 03:09:06;;;;;;;77.80;34.20;;;;;;;1.49;100.00;102650.09;5035202;28;20077;-77
2022/03/21 03:11:32;;;;;;;71.82;30.08;;;;;;;1.47;100.00;102659.09;5023529;28;20120;-77
2022/03/21 03:13:57;;;;;;;61.08;30.33;;;;;;;1.52;100.00;102653.66;5027107;28;20057;-78
2022/03/21 03:16:23;;;;;;;67.90;30.98;;;;;;;1.47;100.00;102655.50;5031024;28;20091;-77
2022/03/21 03:18:48;;;;;;;63.03;29.33;;;;;;;1.41;100.00;102663.69;5057178;28;20456;-77
2022/03/21 03:21:19;;;;;;;61.70;29.90;;;;;;;1.32;100.00;102661.09;5025878;28;20026;-77
2022/03/21 03:23:47;;;;;;;67.03;30.13;;;;;;;1.37;100.00;102659.25;5028364;28;20041;-78
2022/03/21 03:26:12;;;;;;;66.63;29.73;;;;;;;1.25;100.00;102655.78;5027464;28;20034;-77
2022/03/21 03:28:38;;;;;;;61.33;28.40;;;;;;;1.20;100.00;102648.66;5037349;28;20077;-78
2022/03/21 03:31:04;;;;;;;68.20;28.85;;;;;;;1.21;100.00;102667.50;5036170;28;20041;-78
2022/03/21 03:33:30;;;;;;;69.75;28.45;;;;;;;1.16;100.00;102666.66;5034335;28;20030;-78
2022/03/21 03:35:56;;;;;;;58.60;29.20;;;;;;;1.18;100.00;102666.63;5033657;28;20045;-78
2022/03/21 03:38:22;;;;;;;54.95;27.05;;;;;;;1.24;100.00;102675.56;5019305;28;20117;-78
2022/03/21 03:40:47;;;;;;;61.80;28.60;;;;;;;1.28;100.00;102674.63;5034922;28;20053;-78
2022/03/21 03:43:16;;;;;;;62.83;29.40;;;;;;;1.31;100.00;102686.28;5026410;28;20154;-78
2022/03/21 03:45:42;;;;;;;70.35;28.08;;;;;;;1.25;100.00;102681.88;5036664;28;20350;-78
2022/03/21 03:48:09;;;;;;;58.38;26.63;;;;;;;1.28;100.00;102685.41;5030020;28;20020;-78
2022/03/21 03:50:34;;;;;;;67.03;28.50;;;;;;;1.24;100.00;102688.16;5038624;28;20064;-78
2022/03/21 03:53:00;;;;;;;65.57;28.83;;;;;;;1.27;100.00;102686.31;5021634;28;20427;-78
2022/03/21 03:55:26;;;;;;;58.35;27.80;;;;;;;1.10;100.00;102689.19;5028875;28;20045;-78
2022/03/21 03:57:53;;;;;;;58.22;23.58;;;;;;;1.27;100.00;102682.72;5029956;28;20034;-78
2022/03/21 04:00:18;;;;;;;45.83;22.30;;;;;;;1.24;100.00;102675.56;5042501;28;20033;-78
2022/03/21 04:05:29;;;;;;;35.28;19.92;;;;;;;1.16;100.00;102681.94;5036135;28;20086;-77
2022/03/21 04:07:56;;;;;;;41.58;21.02;;;;;;;1.23;100.00;102684.56;5018406;28;20030;-78
2022/03/21 04:10:22;;;;;;;40.03;22.13;;;;;;;1.16;100.00;102680.13;5065268;28;20044;-78
2022/03/21 04:12:49;;;;;;;39.40;21.65;;;;;;;1.17;100.00;102683.75;5034028;28;20025;-78
2022/03/21 04:15:16;;;;;;;41.42;20.55;;;;;;;0.90;100.00;102680.38;5028971;28;20468;-78
2022/03/21 04:17:42;;;;;;;44.05;21.52;;;;;;;0.90;100.00;102685.78;5020300;28;20026;-78
2022/03/21 04:20:08;;;;;;;41.13;22.52;;;;;;;0.96;100.00;102688.44;5064261;28;20033;-78
2022/03/21 04:22:35;;;;;;;49.30;21.85;;;;;;;0.94;100.00;102689.38;5050930;28;20025;-78
2022/03/21 04:25:03;;;;;;;50.47;22.77;;;;;;;0.87;100.00;102673.25;5033544;28;20032;-78
2022/03/21 04:27:28;;;;;;;41.85;21.13;;;;;;;0.81;100.00;102678.69;5023310;28;20033;-78
2022/03/21 04:29:55;;;;;;;47.10;23.08;;;;;;;0.99;100.00;102687.53;5038464;28;20045;-77
2022/03/21 04:32:21;;;;;;;44.72;20.77;;;;;;;0.84;100.00;102693.94;5037241;28;20514;-78
2022/03/21 04:34:46;;;;;;;39.70;19.80;;;;;;;0.64;100.00;102697.72;5034281;28;20029;-78
2022/03/21 04:37:11;;;;;;;45.70;21.35;;;;;;;0.59;100.00;102693.25;5032668;28;20109;-77
2022/03/21 04:39:37;;;;;;;41.30;20.77;;;;;;;0.60;100.00;102703.13;5035618;28;20033;-78
2022/03/21 04:42:03;;;;;;;44.72;21.52;;;;;;;0.64;100.00;102700.41;5029892;28;20365;-78
2022/03/21 04:44:28;;;;;;;47.10;21.08;;;;;;;0.72;100.00;102697.63;5017052;28;20451;-77
2022/03/21 04:46:54;;;;;;;52.72;23.90;;;;;;;0.82;100.00;102703.84;5030978;28;20075;-78
2022/03/21 04:49:19;;;;;;;47.00;21.73;;;;;;;0.78;100.00;102704.78;5035369;28;20100;-78
2022/03/21 04:51:45;;;;;;;40.97;20.65;;;;;;;0.59;100.00;102704.94;5029281;28;20400;-79
2022/03/21 04:54:10;;;;;;;41.78;20.05;;;;;;;0.68;100.00;102703.97;5037937;28;20484;-78
2022/03/21 04:56:36;;;;;;;47.22;22.42;;;;;;;0.66;100.00;102706.66;5037107;28;20117;-79
2022/03/21 04:59:02;;;;;;;46.25;21.20;;;;;;;0.73;100.00;102707.50;5041408;28;20053;-78
2022/03/21 05:01:27;;;;;;;51.25;22.38;;;;;;;0.63;100.00;102708.50;5026152;28;20094;-78
2022/03/21 05:03:53;;;;;;;48.00;22.90;;;;;;;0.61;100.00;102707.59;5034849;28;20029;-78
2022/03/21 05:06:19;;;;;;;53.83;24.65;;;;;;;0.61;100.00;102707.59;5042887;28;20040;-78
2022/03/21 05:08:44;;;;;;;59.78;24.38;;;;;;;0.45;100.00;102713.09;5031741;28;20040;-77
2022/03/21 05:11:10;;;;;;;53.03;24.40;;;;;;;0.44;100.00;102716.69;5023650;28;20025;-79
2022/03/21 05:13:36;;;;;;;52.78;24.23;;;;;;;0.44;100.00;102719.38;5038268;28;20116;-78
2022/03/21 05:16:02;;;;;;;54.90;24.08;;;;;;;0.37;100.00;102712.25;5012485;28;21687;-78
2022/03/21 05:18:28;;;;;;;59.67;23.85;;;;;;;0.41;100.00;102708.66;5032067;28;20160;-78
2022/03/21 05:20:53;;;;;;;51.00;24.25;;;;;;;0.52;100.00;102705.88;5023407;28;20088;-78
2022/03/21 05:31:31;;;;;;;66.70;25.85;;;;;;;0.31;100.00;102709.59;5023241;28;20029;-78
2022/03/21 05:36:40;;;;;;;50.38;24.83;;;;;;;0.31;100.00;102704.22;5036016;28;20542;-79
2022/03/21 05:39:06;;;;;;;48.35;23.55;;;;;;;0.31;100.00;102712.28;5034163;28;20034;-78
2022/03/21 05:41:31;;;;;;;50.08;24.83;;;;;;;0.29;100.00;102717.69;5032119;28;20029;-78
2022/03/21 05:43:56;;;;;;;53.72;24.15;;;;;;;0.32;100.00;102711.41;5045676;28;20385;-79
2022/03/21 05:46:22;;;;;;;44.03;22.42;;;;;;;0.49;100.00;102720.28;5023777;28;20046;-79
2022/03/21 05:48:50;;;;;;;48.28;23.40;;;;;;;0.38;100.00;102715.84;5023440;28;20026;-80
2022/03/21 05:51:27;;;;;;;52.58;22.02;;;;;;;0.35;100.00;102714.06;5024623;28;20087;-79
2022/03/21 05:53:53;;;;;;;47.30;23.50;;;;;;;0.39;100.00;102725.72;5046467;28;20033;-78
2022/03/21 05:56:19;;;;;;;51.35;23.73;;;;;;;0.24;100.00;102706.06;5060602;28;20026;-77
2022/03/21 05:58:45;;;;;;;53.10;23.55;;;;;;;0.26;100.00;102719.50;5051934;28;20350;-77
2022/03/21 06:01:11;;;;;;;42.10;21.13;;;;;;;0.04;100.00;102716.94;5025669;28;20029;-78
2022/03/21 06:03:38;;;;;;;46.30;22.15;;;;;;;-0.02;100.00;102727.72;5023932;28;20029;-77
2022/03/21 06:06:04;;;;;;;50.38;23.88;;;;;;;0.18;100.00;102723.16;5012634;28;20507;-77
2022/03/21 06:08:30;;;;;;;45.40;22.55;;;;;;;0.35;100.00;102738.31;5020199;28;20034;-79
2022/03/21 06:11:03;;;;;;;45.25;22.50;;;;;;;0.35;100.00;102743.72;5035267;28;20134;-77
2022/03/21 06:13:37;;;;;;;45.40;21.85;;;;;;;0.34;100.00;102740.13;5027090;28;20034;-77
2022/03/21 06:16:06;;;;;;;47.75;23.35;;;;;;;0.40;100.00;102732.91;5029335;28;20116;-78
2022/03/21 06:18:33;;;;;;;43.85;23.55;;;;;;;0.49;100.00;102731.06;5039361;28;20456;-78
2022/03/21 06:21:00;;;;;;;47.40;24.13;;;;;;;0.52;100.00;102740.91;5040793;28;20083;-78
2022/03/21 06:23:26;;;;;;;49.10;24.98;;;;;;;0.64;100.00;102729.13;5037121;28;20033;-78
2022/03/21 06:25:53;;;;;;;52.50;22.83;;;;;;;0.63;100.00;102727.38;5039880;28;20060;-78
2022/03/21 06:28:20;;;;;;;56.35;26.13;;;;;;;0.75;100.00;102734.47;5031341;28;20025;-78
2022/03/21 06:30:46;;;;;;;50.50;25.80;;;;;;;0.80;100.00;102736.19;5033645;28;20360;-78
2022/03/21 06:33:11;;;;;;;62.47;26.13;;;;;;;1.04;100.00;102736.91;5040262;28;20128;-79
2022/03/21 06:35:37;;;;;;;55.15;28.48;;;;;;;1.30;100.00;102731.28;5040085;28;20396;-79
2022/03/21 06:38:02;;;;;;;60.97;29.02;;;;;;;1.47;100.00;102731.97;5034713;28;20573;-79
2022/03/21 06:40:29;;;;;;;63.50;29.50;;;;;;;1.73;100.00;102740.72;5028257;28;20044;-79
2022/03/21 06:42:55;;;;;;;52.30;26.70;;;;;;;1.81;100.00;102746.91;5039194;28;20064;-78
2022/03/21 06:45:21;;;;;;;52.88;25.80;;;;;;;2.06;100.00;102749.31;5035748;28;20412;-77
2022/03/21 06:47:47;;;;;;;58.13;26.25;;;;;;;2.22;100.00;102750.00;5048573;28;20025;-77
2022/03/21 06:50:12;;;;;;;50.60;26.35;;;;;;;2.40;100.00;102755.16;5032617;28;20072;-77
2022/03/21 06:52:39;;;;;;;52.75;27.65;;;;;;;2.51;100.00;102757.69;5035599;28;20064;-77
2022/03/21 06:55:06;;;;;;;55.00;26.35;;;;;;;2.61;100.00;102755.75;5036286;28;20029;-78
2022/03/21 06:57:32;;;;;;;48.55;25.83;;;;;;;2.60;100.00;102762.09;5046658;28;20096;-78
2022/03/21 06:59:57;;;;;;;58.40;25.25;;;;;;;2.94;100.00;102762.44;5026028;28;20033;-77
2022/03/21 07:02:23;;;;;;;52.85;27.35;;;;;;;3.10;100.00;102760.38;5029728;28;20433;-77
2022/03/21 07:04:49;;;;;;;51.05;25.35;;;;;;;3.25;100.00;102764.66;5022948;28;20029;-78
2022/03/21 07:07:15;;;;;;;58.53;28.13;;;;;;;3.39;100.00;102767.09;5023375;28;20029;-78
2022/03/21 07:09:40;;;;;;;50.63;25.45;;;;;;;3.37;100.00;102769.81;5039442;28;20040;-79
2022/03/21 07:12:06;;;;;;;51.75;26.25;;;;;;;3.31;100.00;102775.34;5042489;28;20039;-79
2022/03/21 07:14:32;;;;;;;59.72;29.02;;;;;;;3.74;100.00;102777.28;5034200;28;20047;-78
2022/03/21 07:16:58;;;;;;;64.03;31.08;;;;;;;4.06;100.00;102767.59;5039475;28;20112;-78
2022/03/21 07:19:23;;;;;;;62.03;30.40;;;;;;;4.04;100.00;102777.56;5020142;28;20117;-78
2022/03/21 07:21:49;;;;;;;66.32;32.47;;;;;;;4.30;100.00;102771.59;5032580;28;20041;-78
2022/03/21 07:24:14;;;;;;;82.88;33.88;;;;;;;4.67;100.00;102776.16;5018237;28;20362;-77
2022/03/21 07:26:40;;;;;;;72.65;34.97;;;;;;;5.01;100.00;102775.38;5031762;28;20041;-77
2022/03/21 07:29:06;;;;;;;79.15;37.30;;;;;;;5.28;100.00;102775.59;5039863;28;20108;-79
2022/03/21 07:31:33;;;;;;;75.53;38.20;;;;;;;5.55;100.00;102775.81;5033635;28;20112;-78
2022/03/21 07:33:58;;;;;;;76.00;39.33;;;;;;;5.84;100.00;102778.63;5037858;28;20030;-78
2022/03/21 07:36:24;;;;;;;83.60;35.78;;;;;;;6.07;100.00;102782.56;5038662;28;20588;-79
2022/03/21 07:38:49;;;;;;;75.60;35.78;;;;;;;6.21;100.00;102780.28;5037945;28;20504;-79
2022/03/21 07:41:15;;;;;;;78.35;33.55;;;;;;;6.37;100.00;102779.84;5031856;28;20041;-79
2022/03/21 07:43:40;;;;;;;61.00;29.60;;;;;;;6.60;100.00;102779.13;5055889;28;20025;-79
2022/03/21 07:48:50;;;;;;;66.50;30.00;;;;;;;6.91;100.00;102781.75;5035627;28;20026;-79
2022/03/21 07:51:17;;;;;;;61.80;29.60;;;;;;;7.25;100.00;102782.50;5032549;28;20033;-78
2022/03/21 07:53:42;;;;;;;55.88;28.05;;;;;;;7.48;100.00;102785.31;5035857;28;20025;-79
2022/03/21 07:56:08;;;;;;;55.70;27.15;;;;;;;7.85;100.00;102783.97;5036487;28;20041;-79
2022/03/21 07:58:35;;;;;;;60.05;26.17;;;;;;;7.96;100.00;102783.59;5041390;28;20136;-79
2022/03/21 08:01:03;;;;;;;48.45;24.42;;;;;;;8.20;100.00;102781.78;5033345;28;20061;-79
2022/03/21 08:03:28;;;;;;;57.58;25.88;;;;;;;8.16;100.00;102777.38;5030491;28;20040;-79
2022/03/21 08:05:55;;;;;;;51.95;26.33;;;;;;;8.68;100.00;102781.81;5046685;28;20034;-80
2022/03/21 08:08:20;;;;;;;52.53;24.92;;;;;;;8.67;100.00;102777.28;5018063;28;20033;-79
2022/03/21 08:10:46;;;;;;;59.85;24.77;;;;;;;9.20;100.00;102776.94;5028331;28;20555;-79
2022/03/21 08:13:16;;;;;;;44.85;22.42;;;;;;;9.38;100.00;102767.94;5012982;28;20034;-78
2022/03/21 08:15:45;;;;;;;44.78;22.75;;;;;;;9.57;100.00;102769.84;5032015;28;20034;-79
2022/03/21 08:18:13;;;;;;;59.28;24.33;;;;;;;9.63;100.00;102777.78;5048353;28;20087;-80
2022/03/21 08:20:43;;;;;;;57.72;23.42;;;;;;;10.07;100.00;102777.63;5030306;28;20705;-80
2022/03/21 08:23:11;;;;;;;56.20;22.83;;;;;;;10.32;100.00;102776.53;5017456;28;20040;-79
2022/03/21 08:25:39;;;;;;;52.80;22.70;;;;;;;10.14;100.00;102780.09;5037238;28;20042;-79
2022/03/21 08:28:05;;;;;;;46.28;20.83;;;;;;;10.44;100.00;102781.41;5026941;28;20033;-80
2022/03/21 08:30:33;;;;;;;45.45;21.70;;;;;;;10.78;100.00;102782.53;5034068;28;20052;-80
2022/03/21 08:32:59;;;;;;;44.72;20.50;;;;;;;11.24;100.00;102783.94;5039326;28;20045;-79
2022/03/21 08:35:25;;;;;;;42.25;20.60;;;;;;;11.53;100.00;102780.56;5021952;28;20038;-80
2022/03/21 08:37:50;;;;;;;41.33;20.27;;;;;;;11.56;100.00;102785.91;5025487;28;20034;-78
2022/03/21 08:40:16;;;;;;;44.10;19.92;;;;;;;12.19;99.65;102778.06;5028098;28;20061;-79
2022/03/21 08:42:42;;;;;;;36.78;18.85;;;;;;;12.16;100.00;102773.59;5034490;28;20032;-79
2022/03/21 08:45:09;;;;;;;45.55;20.00;;;;;;;12.01;99.57;102774.44;5021826;28;20046;-77
2022/03/21 08:47:35;;;;;;;36.90;19.42;;;;;;;11.97;100.00;102781.97;5026510;28;20060;-77
2022/03/21 08:50:02;;;;;;;43.83;18.75;;;;;;;12.40;99.09;102782.34;5016613;28;20496;-77
2022/03/21 08:52:28;;;;;;;42.83;18.40;;;;;;;12.55;99.14;102772.34;5045637;28;20056;-78
2022/03/21 08:54:54;;;;;;;36.33;18.65;;;;;;;12.87;95.89;102781.50;5030090;28;20030;-77
2022/03/21 08:57:20;;;;;;;41.78;19.20;;;;;;;12.94;94.25;102772.91;5034825;28;20033;-76
2022/03/21 08:59:47;;;;;;;45.05;20.50;;;;;;;12.69;98.33;102785.28;5039786;28;20090;-77
2022/03/21 09:02:17;;;;;;;43.22;19.75;;;;;;;12.92;96.02;102778.50;5025142;28;20466;-78
2022/03/21 09:04:42;;;;;;;42.75;19.88;;;;;;;13.36;93.34;102776.84;5031508;28;20115;-78
2022/03/21 09:07:08;;;;;;;38.70;19.27;;;;;;;13.98;89.00;102780.34;5031659;28;20037;-79
2022/03/21 09:09:34;;;;;;;35.70;18.38;;;;;;;14.14;86.41;102771.16;5015354;28;20041;-77
2022/03/21 09:12:00;;;;;;;41.38;19.25;;;;;;;13.56;88.04;102773.78;5028255;28;20416;-78
2022/03/21 09:14:42;;;;;;;39.05;19.23;;;;;;;13.42;89.48;102774.63;5009849;28;20034;-78
2022/03/21 09:17:07;;;;;;;43.10;20.23;;;;;;;13.56;89.21;102771.03;5026119;28;20071;-78
2022/03/21 09:19:33;;;;;;;45.25;20.00;;;;;;;14.05;86.52;102769.88;5034326;28;20057;-78
2022/03/21 09:21:59;;;;;;;36.90;18.83;;;;;;;14.07;86.29;102770.66;5017679;28;20038;-78
2022/03/21 09:24:25;;;;;;;37.58;18.85;;;;;;;14.52;81.95;102760.38;5026203;28;20035;-76
2022/03/21 09:26:50;;;;;;;41.13;20.33;;;;;;;14.23;84.84;102761.41;5032024;28;20123;-78
2022/03/21 09:29:16;;;;;;;39.42;19.20;;;;;;;13.83;87.16;102756.53;5030338;28;20075;-78
2022/03/21 09:31:43;;;;;;;42.75;19.23;;;;;;;13.83;87.48;102758.44;5026250;28;20380;-79
2022/03/21 09:34:11;;;;;;;38.50;19.42;;;;;;;14.65;84.33;102756.88;5015873;28;20042;-76
2022/03/21 09:36:37;;;;;;;39.70;20.27;;;;;;;14.22;84.70;102752.25;5041615;28;20096;-77
2022/03/21 09:39:04;;;;;;;39.25;19.13;;;;;;;14.81;83.50;102759.50;5036792;28;20076;-77
2022/03/21 09:41:30;;;;;;;36.67;17.60;;;;;;;14.65;80.30;102759.63;5040155;28;20044;-77
2022/03/21 09:44:03;;;;;;;41.30;18.65;;;;;;;14.58;80.06;102747.22;5050808;28;20400;-78
2022/03/21 09:46:29;;;;;;;42.15;19.02;;;;;;;14.63;81.18;102750.59;5043085;28;20021;-78
2022/03/21 09:48:56;;;;;;;38.88;19.60;;;;;;;14.70;81.03;102749.19;5021088;28;20029;-79
2022/03/21 09:51:31;;;;;;;45.55;19.38;;;;;;;15.05;77.27;102748.69;5034414;28;20033;-79
2022/03/21 09:53:59;;;;;;;35.38;17.98;;;;;;;15.52;76.90;102744.53;5033293;28;20126;-78
2022/03/21 09:56:26;;;;;;;37.92;18.20;;;;;;;15.04;73.22;102749.69;5025383;28;20025;-78
2022/03/21 09:58:58;;;;;;;32.35;18.35;;;;;;;15.24;73.05;102740.91;5032095;28;20022;-78
2022/03/21 10:01:25;;;;;;;37.70;19.15;;;;;;;15.45;75.08;102743.19;5041209;28;20079;-78
2022/03/21 10:03:52;;;;;;;41.97;19.55;;;;;;;15.59;72.00;102744.97;5040099;28;20104;-78
2022/03/21 10:06:58;;;;;;;39.47;18.45;;;;;;;15.75;76.10;102742.91;5017303;28;20105;-77
2022/03/21 10:09:25;;;;;;;38.30;18.95;;;;;;;15.56;73.01;102743.34;5038230;28;20041;-78
2022/03/21 10:11:58;;;;;;;41.10;18.88;;;;;;;16.02;70.01;102739.22;5036189;28;20472;-77
2022/03/21 10:14:24;;;;;;;35.33;17.98;;;;;;;16.12;69.95;102737.53;5039159;28;20194;-77
2022/03/21 10:17:07;;;;;;;40.70;19.08;;;;;;;16.15;69.30;102737.31;5034725;28;20475;-77
2022/03/21 10:19:47;;;;;;;37.30;17.48;;;;;;;16.21;68.75;102740.63;5018325;28;20026;-77
2022/03/21 10:22:19;;;;;;;34.67;17.95;;;;;;;15.87;69.44;102734.78;5030123;28;20492;-77
2022/03/21 10:24:47;;;;;;;33.33;17.38;;;;;;;15.90;71.40;102737.31;5030671;28;20500;-78
2022/03/21 10:27:28;;;;;;;39.10;18.10;;;;;;;16.09;69.74;102731.34;5011874;28;20037;-78
2022/03/21 10:30:00;;;;;;;36.85;18.65;;;;;;;15.96;69.39;102731.34;5042702;28;20033;-78
2022/03/21 10:32:34;;;;;;;39.80;18.10;;;;;;;16.22;67.88;102735.00;5026132;28;20045;-78
2022/03/21 10:35:17;;;;;;;37.22;19.00;;;;;;;16.56;69.31;102728.84;5020633;28;20076;-78
2022/03/21 10:37:48;;;;;;;32.70;18.58;;;;;;;16.47;71.39;102734.06;5051371;28;20108;-77
2022/03/21 10:40:21;;;;;;;38.03;18.65;;;;;;;16.33;70.08;102725.88;5020167;28;20148;-77
2022/03/21 10:42:55;;;;;;;35.33;16.33;;;;;;;16.48;67.67;102729.44;5025705;28;20060;-78
2022/03/21 10:45:22;;;;;;;34.08;15.85;;;;;;;16.67;67.21;102724.25;5034004;28;20052;-78
2022/03/21 10:47:53;;;;;;;29.35;17.08;;;;;;;16.43;66.37;102734.38;5018942;28;20038;-79
2022/03/21 10:50:29;;;;;;;30.88;15.98;;;;;;;16.76;66.03;102721.81;5014575;28;20519;-78
2022/03/21 10:53:23;;;;;;;37.17;17.83;;;;;;;16.75;72.25;102715.41;5037497;28;20112;-79
2022/03/21 10:56:04;;;;;;;26.38;16.38;;;;;;;16.75;66.65;102707.09;5038061;28;20045;-78
2022/03/21 10:58:42;;;;;;;29.92;17.98;;;;;;;16.71;67.36;102720.28;5016566;28;20441;-77
2022/03/21 11:01:11;;;;;;;32.15;17.73;;;;;;;16.23;71.17;102720.16;5035270;28;20037;-79
2022/03/21 11:03:41;;;;;;;38.85;17.67;;;;;;;16.12;71.67;102723.72;5033567;28;20056;-80
2022/03/21 11:06:07;;;;;;;32.92;17.35;;;;;;;16.35;69.82;102721.16;5034621;28;20391;-77
2022/03/21 11:08:33;;;;;;;28.98;17.35;;;;;;;16.34;69.99;102711.09;5034575;28;20040;-78
2022/03/21 11:10:59;;;;;;;35.95;18.17;;;;;;;16.49;70.41;102709.06;5042078;28;20033;-77
2022/03/21 11:13:26;;;;;;;31.55;16.63;;;;;;;16.93;68.19;102709.50;5046300;28;20065;-79
2022/03/21 11:15:52;;;;;;;33.83;17.30;;;;;;;16.70;68.75;102709.34;5035499;28;20045;-78
2022/03/21 11:18:20;;;;;;;36.10;17.10;;;;;;;16.46;68.79;102701.91;5034369;28;20453;-77
2022/03/21 11:20:47;;;;;;;32.13;17.17;;;;;;;16.99;67.90;102709.03;5046769;28;20410;-78
2022/03/21 11:23:15;;;;;;;30.17;17.38;;;;;;;16.83;72.15;102695.44;5050395;28;20033;-79
2022/03/21 11:25:48;;;;;;;34.60;17.83;;;;;;;16.76;70.55;102702.44;5046324;28;20061;-79
2022/03/21 11:28:32;;;;;;;34.97;18.13;;;;;;;16.57;70.88;102705.72;5047213;28;20025;-79